createdAt,value
2023-03-07T00:04:58.508Z,98342.84
2023-03-07T00:10:00.129Z,98349.06
2023-03-07T00:15:01.849Z,98343.66
2023-03-07T00:20:08.741Z,98341.84
2023-03-07T00:25:10.997Z,98346.63
2023-03-07T00:30:12.698Z,98336.25
2023-03-07T00:35:14.661Z,98332.09
2023-03-07T00:40:16.381Z,98321.16
2023-03-07T00:45:17.999Z,98316.91
2023-03-07T00:50:19.667Z,98310.31
2023-03-07T00:55:21.349Z,98300.00
2023-03-07T01:00:22.966Z,98294.00
2023-03-07T01:05:24.978Z,98291.03
2023-03-07T01:10:28.191Z,98285.78
2023-03-07T01:15:30.503Z,98280.84
2023-03-07T01:20:33.822Z,98272.44
2023-03-07T01:25:40.663Z,98262.81
2023-03-07T01:30:43.010Z,98254.38
2023-03-07T01:35:44.897Z,98250.88
2023-03-07T01:40:46.619Z,98240.66
2023-03-07T01:45:48.492Z,98228.88
2023-03-07T01:50:51.765Z,98223.66
2023-03-07T01:55:53.776Z,98209.88
2023-03-07T02:00:56.015Z,98207.56
2023-03-07T02:06:01.350Z,98197.44
2023-03-07T02:11:03.983Z,98192.66
2023-03-07T02:16:07.704Z,98188.16
2023-03-07T02:21:19.097Z,98194.41
2023-03-07T02:26:32.592Z,98182.16
2023-03-07T02:31:34.487Z,98174.53
2023-03-07T02:36:37.320Z,98166.22
2023-03-07T02:41:56.219Z,98165.06
2023-03-07T02:47:09.015Z,98162.75
2023-03-07T02:52:11.081Z,98156.91
2023-03-07T02:57:12.974Z,98142.63
2023-03-07T03:02:14.668Z,98139.78
2023-03-07T03:07:16.364Z,98124.38
2023-03-07T03:12:18.150Z,98114.81
2023-03-07T03:17:20.238Z,98112.63
2023-03-07T03:22:22.412Z,98103.19
2023-03-07T03:27:25.908Z,98105.31
2023-03-07T03:32:28.000Z,98100.66
2023-03-07T03:37:29.650Z,98096.66
2023-03-07T03:42:31.382Z,98086.75
2023-03-07T03:47:34.773Z,98079.34
2023-03-07T03:52:36.841Z,98064.25
2023-03-07T03:57:38.928Z,98064.25
2023-03-07T04:02:41.515Z,98064.28
2023-03-07T04:07:48.222Z,98053.56
2023-03-07T04:12:49.943Z,98040.28
2023-03-07T04:17:51.590Z,98033.00
2023-03-07T04:22:53.259Z,98037.13
2023-03-07T04:27:54.977Z,98030.34
2023-03-07T04:32:56.774Z,98009.13
2023-03-07T04:37:58.457Z,97992.06
2023-03-07T04:43:00.481Z,97998.53
2023-03-07T04:48:02.217Z,97991.25
2023-03-07T04:53:04.417Z,97981.28
2023-03-07T04:58:08.964Z,97975.84
2023-03-07T05:03:12.391Z,97974.19
2023-03-07T05:08:14.036Z,97970.03
2023-03-07T05:13:16.007Z,97965.72
2023-03-07T05:18:18.315Z,97962.44
2023-03-07T05:23:20.496Z,97963.75
2023-03-07T05:28:24.202Z,97956.63
2023-03-07T05:33:26.874Z,97954.81
2023-03-07T05:38:28.817Z,97939.88
2023-03-07T05:43:30.670Z,97944.19
2023-03-07T05:48:32.462Z,97944.50
2023-03-07T05:53:34.165Z,97943.34
2023-03-07T05:58:36.477Z,97950.28
2023-03-07T06:03:38.552Z,97947.47
2023-03-07T06:08:40.375Z,97936.19
2023-03-07T06:13:42.327Z,97947.13
2023-03-07T06:18:44.073Z,97950.09
2023-03-07T06:23:46.097Z,97951.25
2023-03-07T06:28:52.113Z,97951.09
2023-03-07T06:33:56.067Z,97948.75
2023-03-07T06:38:59.545Z,97949.25
2023-03-07T06:44:01.484Z,97953.06
2023-03-07T06:49:06.410Z,97930.00
2023-03-07T06:54:08.961Z,97943.97
2023-03-07T06:59:11.182Z,97939.81
2023-03-07T07:04:12.838Z,97937.97
2023-03-07T07:09:16.824Z,97944.75
2023-03-07T07:14:19.245Z,97922.81
2023-03-07T07:19:22.138Z,97931.25
2023-03-07T07:24:24.252Z,97929.91
2023-03-07T07:29:27.614Z,97936.34
2023-03-07T07:34:29.789Z,97927.38
2023-03-07T07:39:32.680Z,97937.16
2023-03-07T07:44:34.797Z,97939.97
2023-03-07T07:49:42.760Z,97941.25
2023-03-07T07:54:44.757Z,97944.09
2023-03-07T07:59:46.567Z,97942.59
2023-03-07T08:04:48.246Z,97933.47
2023-03-07T08:09:49.876Z,97936.13
2023-03-07T08:14:51.489Z,97935.50
2023-03-07T08:19:53.093Z,97922.63
2023-03-07T08:24:54.676Z,97909.00
2023-03-07T08:29:56.696Z,97918.72
2023-03-07T08:34:58.361Z,97914.06
2023-03-07T08:39:59.985Z,97917.13
2023-03-07T08:45:02.468Z,97914.03
2023-03-07T08:50:05.951Z,97909.41
2023-03-07T08:55:08.273Z,97918.22
2023-03-07T09:00:12.280Z,97920.28
2023-03-07T09:05:13.922Z,97918.88
2023-03-07T09:10:17.242Z,97904.47
2023-03-07T09:15:18.964Z,97912.38
2023-03-07T09:20:20.632Z,97908.97
2023-03-07T09:25:22.936Z,97911.53
2023-03-07T09:30:25.477Z,97908.41
2023-03-07T09:35:27.109Z,97894.47
2023-03-07T09:40:29.101Z,97878.34
2023-03-07T09:45:59.294Z,97879.13
2023-03-07T09:51:12.022Z,97885.19
2023-03-07T09:56:22.022Z,97862.53
2023-03-07T10:01:27.502Z,97867.56
2023-03-07T10:06:55.240Z,97862.13
2023-03-07T10:12:10.835Z,97861.25
2023-03-07T10:17:24.311Z,97863.66
2023-03-07T10:23:05.717Z,97846.47
2023-03-07T10:28:24.209Z,97844.47
2023-03-07T10:33:28.047Z,97844.97
2023-03-07T10:38:56.931Z,97837.94
2023-03-07T10:43:58.733Z,97825.28
2023-03-07T10:49:09.494Z,97832.44
2023-03-07T10:54:23.332Z,97831.72
2023-03-07T10:59:25.383Z,97814.97
2023-03-07T11:04:30.294Z,97815.28
2023-03-07T11:09:34.669Z,97786.09
2023-03-07T11:14:53.370Z,97783.69
2023-03-07T11:19:56.715Z,97765.91
2023-03-07T11:25:10.544Z,97770.69
2023-03-07T11:30:44.294Z,97766.34
2023-03-07T11:36:07.147Z,97753.88
2023-03-07T11:41:23.056Z,97765.84
2023-03-07T11:46:41.254Z,97759.06
2023-03-07T11:52:22.048Z,97739.19
2023-03-07T11:57:52.223Z,97751.75
2023-03-07T12:03:05.894Z,97739.97
2023-03-07T12:08:38.611Z,97736.91
2023-03-07T12:14:15.795Z,97735.03
2023-03-07T12:19:55.007Z,97724.16
2023-03-07T12:25:40.177Z,97716.75
2023-03-07T12:31:00.646Z,97714.59
2023-03-07T12:36:08.754Z,97708.50
2023-03-07T12:41:32.575Z,97693.63
2023-03-07T12:47:31.082Z,97702.75
2023-03-07T12:52:43.670Z,97709.09
2023-03-07T12:57:56.020Z,97708.50
2023-03-07T13:03:04.347Z,97700.44
2023-03-07T13:08:07.695Z,97699.66
2023-03-07T13:13:46.426Z,97703.94
2023-03-07T13:18:48.065Z,97704.19
2023-03-07T13:23:49.658Z,97696.13
2023-03-07T13:28:52.118Z,97687.09
2023-03-07T13:33:54.088Z,97675.50
2023-03-07T13:38:55.703Z,97686.69
2023-03-07T13:44:00.137Z,97685.88
2023-03-07T13:49:01.980Z,97675.78
2023-03-07T13:54:06.965Z,97671.28
2023-03-07T13:59:14.615Z,97685.66
2023-03-07T14:04:40.036Z,97674.16
2023-03-07T14:09:48.556Z,97672.28
2023-03-07T14:15:07.860Z,97675.78
2023-03-07T14:20:53.146Z,97678.22
2023-03-07T14:26:09.267Z,97678.03
2023-03-07T14:31:23.213Z,97675.31
2023-03-07T14:36:29.222Z,97701.06
2023-03-07T14:41:39.568Z,97681.53
2023-03-07T14:46:47.357Z,97668.50
2023-03-07T14:51:49.132Z,97668.47
2023-03-07T14:56:53.110Z,97653.00
2023-03-07T15:01:55.468Z,97666.38
2023-03-07T15:07:04.549Z,97671.97
2023-03-07T15:12:15.676Z,97667.63
2023-03-07T15:17:25.324Z,97659.44
2023-03-07T15:22:33.922Z,97649.56
2023-03-07T15:27:35.719Z,97660.44
2023-03-07T15:32:40.408Z,97649.31
2023-03-07T15:37:53.546Z,97655.13
2023-03-07T15:43:15.559Z,97663.94
2023-03-07T15:48:37.222Z,97647.94
2023-03-07T15:53:41.471Z,97656.75
2023-03-07T15:58:45.228Z,97663.09
2023-03-07T16:03:51.424Z,97662.47
2023-03-07T16:08:53.107Z,97660.81
2023-03-07T16:13:54.827Z,97661.78
2023-03-07T16:18:59.785Z,97652.56
2023-03-07T16:24:01.395Z,97643.09
2023-03-07T16:29:04.026Z,97648.66
2023-03-07T16:34:06.777Z,97652.75
2023-03-07T16:39:10.031Z,97658.28
2023-03-07T16:44:16.386Z,97656.06
2023-03-07T16:49:18.565Z,97670.41
2023-03-07T16:54:20.258Z,97681.13
2023-03-07T16:59:23.799Z,97666.94
2023-03-07T17:04:25.444Z,97701.66
2023-03-07T17:09:27.061Z,97699.19
2023-03-07T17:14:28.692Z,97731.41
2023-03-07T17:19:32.354Z,97740.41
2023-03-07T17:24:33.969Z,97751.69
2023-03-07T17:29:43.141Z,97776.41
2023-03-07T17:34:44.766Z,97810.09
2023-03-07T17:39:46.398Z,97829.69
2023-03-07T17:44:48.019Z,97817.81
2023-03-07T17:49:50.394Z,97823.78
2023-03-07T17:54:52.301Z,97834.59
2023-03-07T17:59:54.861Z,97830.88
2023-03-07T18:04:56.529Z,97838.63
2023-03-07T18:10:07.478Z,97853.72
2023-03-07T18:15:15.709Z,97863.41
2023-03-07T18:20:19.115Z,97856.66
2023-03-07T18:25:20.918Z,97860.97
2023-03-07T18:30:22.749Z,97861.28
2023-03-07T18:35:24.502Z,97865.06
2023-03-07T18:40:26.242Z,97861.81
2023-03-07T18:45:28.454Z,97870.25
2023-03-07T18:50:30.364Z,97871.63
2023-03-07T18:55:35.307Z,97872.09
2023-03-07T19:00:37.029Z,97870.13
2023-03-07T19:05:45.239Z,97873.13
2023-03-07T19:10:46.867Z,97872.78
2023-03-07T19:15:48.562Z,97870.78
2023-03-07T19:20:50.185Z,97872.28
2023-03-07T19:25:51.865Z,97873.56
2023-03-07T19:30:54.300Z,97870.88
2023-03-07T19:36:02.916Z,97873.31
2023-03-07T19:41:06.260Z,97878.63
2023-03-07T19:46:09.830Z,97888.28
2023-03-07T19:51:15.308Z,97873.06
2023-03-07T19:56:31.816Z,97869.94
2023-03-07T20:01:33.555Z,97872.44
2023-03-07T20:06:35.482Z,97865.47
2023-03-07T20:11:38.574Z,97860.28
2023-03-07T20:16:40.767Z,97870.38
2023-03-07T20:21:49.669Z,97877.75
2023-03-07T20:26:51.308Z,97879.38
2023-03-07T20:31:53.423Z,97894.94
2023-03-07T20:36:55.071Z,97891.00
2023-03-07T20:41:56.669Z,97895.16
2023-03-07T20:46:58.274Z,97893.97
2023-03-07T20:51:59.881Z,97898.44
2023-03-07T20:57:01.563Z,97902.09
2023-03-07T21:02:03.300Z,97904.72
2023-03-07T21:07:05.373Z,97902.06
2023-03-07T21:12:08.632Z,97913.19
2023-03-07T21:17:12.678Z,97912.22
2023-03-07T21:22:14.429Z,97921.81
2023-03-07T21:27:16.014Z,97925.63
2023-03-07T21:32:17.651Z,97929.94
2023-03-07T21:37:20.642Z,97926.63
2023-03-07T21:42:22.257Z,97934.06
2023-03-07T21:47:23.850Z,97943.34
2023-03-07T21:52:25.454Z,97954.13
2023-03-07T21:57:29.562Z,97954.25
2023-03-07T22:02:31.162Z,97945.66
2023-03-07T22:07:32.836Z,97962.56
2023-03-07T22:12:34.519Z,97975.50
2023-03-07T22:17:36.276Z,97970.69
2023-03-07T22:22:37.905Z,97970.38
2023-03-07T22:27:39.494Z,97968.84
2023-03-07T22:32:44.249Z,97973.50
2023-03-07T22:37:45.899Z,97975.50
2023-03-07T22:42:47.838Z,97980.13
2023-03-07T22:47:49.433Z,97996.69
2023-03-07T22:52:54.155Z,98005.63
2023-03-07T22:57:55.857Z,97990.06
2023-03-07T23:02:57.528Z,97994.06
2023-03-07T23:08:00.334Z,97996.22
2023-03-07T23:13:02.246Z,98000.38
2023-03-07T23:18:04.011Z,98009.59
2023-03-07T23:23:05.878Z,98013.25
2023-03-07T23:28:08.264Z,98014.41
2023-03-07T23:33:09.893Z,98029.59
2023-03-07T23:38:15.041Z,98040.38
2023-03-07T23:43:16.658Z,98040.19
2023-03-07T23:48:18.301Z,98042.69
2023-03-07T23:53:19.947Z,98051.28
2023-03-07T23:58:21.569Z,98063.47
